sensor_id;sensor_type;location;lat;lon;timestamp;pressure;altitude;pressure_sealevel;temperature;humidity
41513;BME280;27244;59.940;30.280;2023-07-31T00:00:15;100588.94;;;24.31;49.95
41513;BME280;27244;59.940;30.280;2023-07-31T00:02:42;100585.34;;;24.31;49.94
41513;BME280;27244;59.940;30.280;2023-07-31T00:05:09;100584.56;;;24.30;49.79
41513;BME280;27244;59.940;30.280;2023-07-31T00:07:38;100572.81;;;24.32;49.66
41513;BME280;27244;59.940;30.280;2023-07-31T00:10:06;100558.16;;;24.12;49.78
41513;BME280;27244;59.940;30.280;2023-07-31T00:12:33;100582.19;;;24.29;49.96
41513;BME280;27244;59.940;30.280;2023-07-31T00:15:00;100582.19;;;24.29;49.63
41513;BME280;27244;59.940;30.280;2023-07-31T00:17:28;100585.00;;;24.29;49.83
41513;BME280;27244;59.940;30.280;2023-07-31T00:19:55;100594.69;;;24.28;49.63
41513;BME280;27244;59.940;30.280;2023-07-31T00:22:22;100596.28;;;24.29;49.62
41513;BME280;27244;59.940;30.280;2023-07-31T00:24:51;100605.09;;;24.31;49.88
41513;BME280;27244;59.940;30.280;2023-07-31T00:27:19;100603.50;;;24.30;49.76
41513;BME280;27244;59.940;30.280;2023-07-31T00:29:46;100593.03;;;24.30;49.73
41513;BME280;27244;59.940;30.280;2023-07-31T00:32:13;100591.09;;;24.27;49.78
41513;BME280;27244;59.940;30.280;2023-07-31T00:34:40;100597.88;;;24.30;49.53
41513;BME280;27244;59.940;30.280;2023-07-31T00:37:07;100604.31;;;24.30;49.48
41513;BME280;27244;59.940;30.280;2023-07-31T00:39:34;100601.91;;;24.29;49.64
41513;BME280;27244;59.940;30.280;2023-07-31T00:42:03;100600.22;;;24.31;49.39
41513;BME280;27244;59.940;30.280;2023-07-31T00:44:32;100605.19;;;24.27;49.57
41513;BME280;27244;59.940;30.280;2023-07-31T00:46:59;100609.59;;;24.28;49.64
41513;BME280;27244;59.940;30.280;2023-07-31T00:49:27;100601.91;;;24.29;49.73
41513;BME280;27244;59.940;30.280;2023-07-31T00:51:55;100602.34;;;24.27;49.84
41513;BME280;27244;59.940;30.280;2023-07-31T00:54:24;100606.88;;;24.25;49.78
41513;BME280;27244;59.940;30.280;2023-07-31T00:56:53;100607.56;;;24.29;49.86
41513;BME280;27244;59.940;30.280;2023-07-31T00:59:23;100607.56;;;24.29;49.90
41513;BME280;27244;59.940;30.280;2023-07-31T01:01:50;100606.09;;;24.24;49.89
41513;BME280;27244;59.940;30.280;2023-07-31T01:04:18;100605.19;;;24.27;49.95
41513;BME280;27244;59.940;30.280;2023-07-31T01:06:50;100604.31;;;24.30;50.05
41513;BME280;27244;59.940;30.280;2023-07-31T01:09:29;100604.19;;;24.34;49.63
41513;BME280;27244;59.940;30.280;2023-07-31T01:12:01;100598.78;;;24.27;49.65
41513;BME280;27244;59.940;30.280;2023-07-31T01:14:30;100600.00;;;24.26;49.57
41513;BME280;27244;59.940;30.280;2023-07-31T01:16:57;100597.97;;;24.26;49.70
41513;BME280;27244;59.940;30.280;2023-07-31T01:19:25;100607.56;;;24.29;49.69
41513;BME280;27244;59.940;30.280;2023-07-31T01:24:55;100608.56;;;24.35;49.34
41513;BME280;27244;59.940;30.280;2023-07-31T01:27:31;100607.13;;;24.30;49.75
41513;BME280;27244;59.940;30.280;2023-07-31T01:30:08;100599.47;;;24.31;49.54
41513;BME280;27244;59.940;30.280;2023-07-31T01:32:39;100598.19;;;24.32;49.46
41513;BME280;27244;59.940;30.280;2023-07-31T01:35:07;100592.66;;;24.28;49.68
41513;BME280;27244;59.940;30.280;2023-07-31T01:37:35;100594.38;;;24.26;49.39
41513;BME280;27244;59.940;30.280;2023-07-31T01:40:02;100593.13;;;24.27;49.70
41513;BME280;27244;59.940;30.280;2023-07-31T01:42:31;100598.31;;;24.28;49.71
41513;BME280;27244;59.940;30.280;2023-07-31T01:44:58;100597.97;;;24.26;49.79
41513;BME280;27244;59.940;30.280;2023-07-31T01:47:25;100595.59;;;24.25;49.64
41513;BME280;27244;59.940;30.280;2023-07-31T01:49:52;100583.66;;;24.21;49.59
41513;BME280;27244;59.940;30.280;2023-07-31T01:52:19;100594.50;;;24.22;49.60
41513;BME280;27244;59.940;30.280;2023-07-31T01:54:46;100590.09;;;24.21;49.47
41513;BME280;27244;59.940;30.280;2023-07-31T01:57:14;100601.59;;;24.27;49.51
41513;BME280;27244;59.940;30.280;2023-07-31T01:59:42;100597.97;;;24.26;49.51
41513;BME280;27244;59.940;30.280;2023-07-31T02:02:10;100587.94;;;24.25;49.38
41513;BME280;27244;59.940;30.280;2023-07-31T02:04:37;100591.19;;;24.24;49.52
41513;BME280;27244;59.940;30.280;2023-07-31T02:07:05;100586.81;;;24.23;49.29
41513;BME280;27244;59.940;30.280;2023-07-31T02:09:32;100589.97;;;24.25;49.45
41513;BME280;27244;59.940;30.280;2023-07-31T02:11:59;100590.44;;;24.23;49.54
41513;BME280;27244;59.940;30.280;2023-07-31T02:14:26;100592.00;;;24.24;49.53
41513;BME280;27244;59.940;30.280;2023-07-31T02:16:55;100586.03;;;24.22;49.26
41513;BME280;27244;59.940;30.280;2023-07-31T02:19:22;100593.69;;;24.22;49.48
41513;BME280;27244;59.940;30.280;2023-07-31T02:21:49;100595.59;;;24.25;49.52
41513;BME280;27244;59.940;30.280;2023-07-31T02:24:16;100588.38;;;24.24;49.86
41513;BME280;27244;59.940;30.280;2023-07-31T02:26:43;100589.16;;;24.24;49.66
41513;BME280;27244;59.940;30.280;2023-07-31T02:29:10;100587.63;;;24.23;49.66
41513;BME280;27244;59.940;30.280;2023-07-31T02:31:37;100588.06;;;24.22;49.62
41513;BME280;27244;59.940;30.280;2023-07-31T02:34:06;100588.38;;;24.24;49.61
41513;BME280;27244;59.940;30.280;2023-07-31T02:36:33;100589.28;;;24.21;49.78
41513;BME280;27244;59.940;30.280;2023-07-31T02:39:00;100589.16;;;24.24;49.56
41513;BME280;27244;59.940;30.280;2023-07-31T02:41:27;100589.16;;;24.24;49.70
41513;BME280;27244;59.940;30.280;2023-07-31T02:43:54;100592.00;;;24.24;49.56
41513;BME280;27244;59.940;30.280;2023-07-31T02:46:21;100595.59;;;24.25;49.43
41513;BME280;27244;59.940;30.280;2023-07-31T02:48:50;100592.78;;;24.25;49.53
41513;BME280;27244;59.940;30.280;2023-07-31T02:51:19;100580.41;;;24.22;49.78
41513;BME280;27244;59.940;30.280;2023-07-31T02:53:47;100585.25;;;24.22;49.67
41513;BME280;27244;59.940;30.280;2023-07-31T02:56:15;100587.63;;;24.23;49.55
41513;BME280;27244;59.940;30.280;2023-07-31T02:58:42;100582.75;;;24.24;49.56
41513;BME280;27244;59.940;30.280;2023-07-31T03:01:09;100580.84;;;24.21;49.62
41513;BME280;27244;59.940;30.280;2023-07-31T03:03:36;100576.34;;;24.23;49.74
41513;BME280;27244;59.940;30.280;2023-07-31T03:06:03;100574.75;;;24.22;49.82
41513;BME280;27244;59.940;30.280;2023-07-31T03:08:31;100577.91;;;24.24;49.73
41513;BME280;27244;59.940;30.280;2023-07-31T03:10:59;100566.84;;;24.17;49.52
41513;BME280;27244;59.940;30.280;2023-07-31T03:13:26;100575.56;;;24.23;49.55
41513;BME280;27244;59.940;30.280;2023-07-31T03:15:53;100569.56;;;24.21;50.11
41513;BME280;27244;59.940;30.280;2023-07-31T03:18:20;100568.75;;;24.20;49.91
41513;BME280;27244;59.940;30.280;2023-07-31T03:20:47;100562.38;;;24.20;50.13
41513;BME280;27244;59.940;30.280;2023-07-31T03:23:16;100563.47;;;24.22;49.79
41513;BME280;27244;59.940;30.280;2023-07-31T03:25:56;100556.03;;;24.28;49.50
41513;BME280;27244;59.940;30.280;2023-07-31T03:28:27;100569.13;;;24.22;49.68
41513;BME280;27244;59.940;30.280;2023-07-31T03:30:54;100567.31;;;24.16;49.76
41513;BME280;27244;59.940;30.280;2023-07-31T03:33:21;100573.97;;;24.22;50.19
41513;BME280;27244;59.940;30.280;2023-07-31T03:35:50;100568.31;;;24.22;50.57
41513;BME280;27244;59.940;30.280;2023-07-31T03:38:17;100569.13;;;24.22;50.10
41513;BME280;27244;59.940;30.280;2023-07-31T03:40:44;100570.03;;;24.19;50.00
41513;BME280;27244;59.940;30.280;2023-07-31T03:43:13;100565.19;;;24.20;49.63
41513;BME280;27244;59.940;30.280;2023-07-31T03:45:40;100566.75;;;24.21;49.46
41513;BME280;27244;59.940;30.280;2023-07-31T03:48:07;100565.19;;;24.20;49.87
41513;BME280;27244;59.940;30.280;2023-07-31T03:50:34;100560.00;;;24.18;49.96
41513;BME280;27244;59.940;30.280;2023-07-31T03:53:01;100552.31;;;24.19;50.16
41513;BME280;27244;59.940;30.280;2023-07-31T03:55:28;100559.88;;;24.22;50.14
41513;BME280;27244;59.940;30.280;2023-07-31T03:57:55;100567.53;;;24.21;50.13
41513;BME280;27244;59.940;30.280;2023-07-31T04:00:24;100560.19;;;24.24;50.65
41513;BME280;27244;59.940;30.280;2023-07-31T04:02:51;100555.03;;;24.22;50.50
41513;BME280;27244;59.940;30.280;2023-07-31T04:05:18;100549.03;;;24.20;50.67
41513;BME280;27244;59.940;30.280;2023-07-31T04:07:45;100551.75;;;24.24;50.86
41513;BME280;27244;59.940;30.280;2023-07-31T04:10:12;100553.78;;;24.23;50.83
41513;BME280;27244;59.940;30.280;2023-07-31T04:12:39;100546.91;;;24.24;50.75
41513;BME280;27244;59.940;30.280;2023-07-31T04:15:06;100552.53;;;24.24;51.21
41513;BME280;27244;59.940;30.280;2023-07-31T04:17:35;100540.13;;;24.22;50.97
41513;BME280;27244;59.940;30.280;2023-07-31T04:20:02;100544.88;;;24.25;51.23
41513;BME280;27244;59.940;30.280;2023-07-31T04:22:30;100548.91;;;24.24;51.35
41513;BME280;27244;59.940;30.280;2023-07-31T04:24:59;100549.94;;;24.30;51.11
41513;BME280;27244;59.940;30.280;2023-07-31T04:27:26;100555.69;;;24.26;51.33
41513;BME280;27244;59.940;30.280;2023-07-31T04:29:53;100538.56;;;24.21;51.33
41513;BME280;27244;59.940;30.280;2023-07-31T04:32:20;100530.34;;;24.14;51.38
41513;BME280;27244;59.940;30.280;2023-07-31T04:34:52;100534.38;;;24.25;51.28
41513;BME280;27244;59.940;30.280;2023-07-31T04:37:19;100547.25;;;24.26;51.42
41513;BME280;27244;59.940;30.280;2023-07-31T04:39:46;100545.97;;;24.27;51.43
41513;BME280;27244;59.940;30.280;2023-07-31T04:42:13;100535.06;;;24.17;51.48
41513;BME280;27244;59.940;30.280;2023-07-31T04:44:40;100544.88;;;24.25;51.60
41513;BME280;27244;59.940;30.280;2023-07-31T04:47:07;100548.47;;;24.25;51.67
41513;BME280;27244;59.940;30.280;2023-07-31T04:49:34;100535.63;;;24.24;51.36
41513;BME280;27244;59.940;30.280;2023-07-31T04:52:04;100530.78;;;24.25;51.47
41513;BME280;27244;59.940;30.280;2023-07-31T04:54:31;100534.72;;;24.27;51.63
41513;BME280;27244;59.940;30.280;2023-07-31T04:56:58;100542.72;;;24.29;51.67
41513;BME280;27244;59.940;30.280;2023-07-31T04:59:25;100541.50;;;24.30;51.72
41513;BME280;27244;59.940;30.280;2023-07-31T05:01:52;100542.72;;;24.29;51.60
41513;BME280;27244;59.940;30.280;2023-07-31T05:04:19;100545.53;;;24.29;51.86
41513;BME280;27244;59.940;30.280;2023-07-31T05:06:46;100536.28;;;24.28;51.54
41513;BME280;27244;59.940;30.280;2023-07-31T05:09:15;100542.28;;;24.30;51.83
41513;BME280;27244;59.940;30.280;2023-07-31T05:11:42;100535.50;;;24.28;51.75
41513;BME280;27244;59.940;30.280;2023-07-31T05:14:09;100535.84;;;24.30;51.86
41513;BME280;27244;59.940;30.280;2023-07-31T05:16:36;100531.88;;;24.27;51.80
41513;BME280;27244;59.940;30.280;2023-07-31T05:19:03;100537.44;;;24.31;51.63
41513;BME280;27244;59.940;30.280;2023-07-31T05:21:30;100531.44;;;24.29;52.00
41513;BME280;27244;59.940;30.280;2023-07-31T05:23:57;100527.03;;;24.28;52.01
41513;BME280;27244;59.940;30.280;2023-07-31T05:26:26;100538.56;;;24.33;52.17
41513;BME280;27244;59.940;30.280;2023-07-31T05:28:54;100543.41;;;24.33;52.20
41513;BME280;27244;59.940;30.280;2023-07-31T05:31:21;100527.72;;;24.32;52.03
41513;BME280;27244;59.940;30.280;2023-07-31T05:33:50;100535.38;;;24.31;52.05
41513;BME280;27244;59.940;30.280;2023-07-31T05:36:17;100536.19;;;24.32;52.05
41513;BME280;27244;59.940;30.280;2023-07-31T05:38:44;100541.81;;;24.32;51.92
41513;BME280;27244;59.940;30.280;2023-07-31T05:41:11;100535.84;;;24.30;51.72
41513;BME280;27244;59.940;30.280;2023-07-31T05:43:40;100533.34;;;24.32;52.03
41513;BME280;27244;59.940;30.280;2023-07-31T05:46:08;100530.22;;;24.30;51.84
41513;BME280;27244;59.940;30.280;2023-07-31T05:48:37;100527.84;;;24.28;51.84
41513;BME280;27244;59.940;30.280;2023-07-31T05:51:04;100540.25;;;24.31;51.75
41513;BME280;27244;59.940;30.280;2023-07-31T05:53:31;100525.03;;;24.28;51.91
41513;BME280;27244;59.940;30.280;2023-07-31T05:55:58;100528.63;;;24.29;51.79
41513;BME280;27244;59.940;30.280;2023-07-31T05:58:25;100530.66;;;24.28;52.01
41513;BME280;27244;59.940;30.280;2023-07-31T06:00:54;100535.38;;;24.31;52.06
41513;BME280;27244;59.940;30.280;2023-07-31T06:03:21;100530.22;;;24.30;51.83
41513;BME280;27244;59.940;30.280;2023-07-31T06:05:48;100528.63;;;24.29;52.19
41513;BME280;27244;59.940;30.280;2023-07-31T06:08:15;100530.66;;;24.28;52.35
41513;BME280;27244;59.940;30.280;2023-07-31T06:10:42;100528.50;;;24.32;51.75
41513;BME280;27244;59.940;30.280;2023-07-31T06:13:09;100531.31;;;24.32;52.31
41513;BME280;27244;59.940;30.280;2023-07-31T06:15:36;100508.81;;;24.20;52.51
41513;BME280;27244;59.940;30.280;2023-07-31T06:18:05;100541.13;;;24.40;53.35
41513;BME280;27244;59.940;30.280;2023-07-31T06:20:33;100544.28;;;24.42;53.70
41513;BME280;27244;59.940;30.280;2023-07-31T06:23:00;100541.91;;;24.41;54.37
41513;BME280;27244;59.940;30.280;2023-07-31T06:25:28;100541.81;;;24.44;53.87
41513;BME280;27244;59.940;30.280;2023-07-31T06:27:56;100538.50;;;24.46;54.26
41513;BME280;27244;59.940;30.280;2023-07-31T06:30:23;100529.63;;;24.47;54.50
41513;BME280;27244;59.940;30.280;2023-07-31T06:32:50;100536.38;;;24.50;54.53
41513;BME280;27244;59.940;30.280;2023-07-31T06:35:18;100536.38;;;24.50;53.79
41513;BME280;27244;59.940;30.280;2023-07-31T06:37:45;100528.81;;;24.47;54.16
41513;BME280;27244;59.940;30.280;2023-07-31T06:40:13;100533.91;;;24.52;55.39
41513;BME280;27244;59.940;30.280;2023-07-31T06:42:40;100532.63;;;24.53;55.68
41513;BME280;27244;59.940;30.280;2023-07-31T06:45:08;100531.06;;;24.52;55.85
41513;BME280;27244;59.940;30.280;2023-07-31T06:47:35;100527.00;;;24.53;56.19
41513;BME280;27244;59.940;30.280;2023-07-31T06:50:02;100527.34;;;24.55;56.02
41513;BME280;27244;59.940;30.280;2023-07-31T06:52:31;100532.50;;;24.57;55.43
41513;BME280;27244;59.940;30.280;2023-07-31T06:55:02;100530.81;;;24.59;55.03
41513;BME280;27244;59.940;30.280;2023-07-31T06:57:34;100522.81;;;24.58;54.52
41513;BME280;27244;59.940;30.280;2023-07-31T07:00:05;100512.13;;;24.53;55.22
41513;BME280;27244;59.940;30.280;2023-07-31T07:02:32;100517.28;;;24.54;54.98
41513;BME280;27244;59.940;30.280;2023-07-31T07:04:59;100519.66;;;24.56;54.89
41513;BME280;27244;59.940;30.280;2023-07-31T07:07:26;100517.63;;;24.56;55.32
41513;BME280;27244;59.940;30.280;2023-07-31T07:09:55;100517.97;;;24.58;55.75
41513;BME280;27244;59.940;30.280;2023-07-31T07:12:22;100522.38;;;24.59;55.70
41513;BME280;27244;59.940;30.280;2023-07-31T07:14:49;100523.91;;;24.60;55.89
41513;BME280;27244;59.940;30.280;2023-07-31T07:17:16;100516.72;;;24.59;56.17
41513;BME280;27244;59.940;30.280;2023-07-31T07:19:43;100519.88;;;24.61;56.04
41513;BME280;27244;59.940;30.280;2023-07-31T07:22:11;100513.13;;;24.59;56.45
41513;BME280;27244;59.940;30.280;2023-07-31T07:24:42;100524.94;;;24.66;56.49
41513;BME280;27244;59.940;30.280;2023-07-31T07:27:10;100524.94;;;24.66;56.27
41513;BME280;27244;59.940;30.280;2023-07-31T07:29:38;100524.59;;;24.64;56.06
41513;BME280;27244;59.940;30.280;2023-07-31T07:32:06;100521.09;;;24.60;55.99
41513;BME280;27244;59.940;30.280;2023-07-31T07:34:34;100528.19;;;24.65;55.39
41513;BME280;27244;59.940;30.280;2023-07-31T07:37:01;100533.84;;;24.65;55.84
41513;BME280;27244;59.940;30.280;2023-07-31T07:39:28;100528.66;;;24.63;55.60
41513;BME280;27244;59.940;30.280;2023-07-31T07:41:55;100529.44;;;24.64;55.77
41513;BME280;27244;59.940;30.280;2023-07-31T07:44:24;100532.59;;;24.66;55.68
41513;BME280;27244;59.940;30.280;2023-07-31T07:46:52;100530.22;;;24.64;55.42
41513;BME280;27244;59.940;30.280;2023-07-31T07:49:19;100525.84;;;24.63;55.19
41513;BME280;27244;59.940;30.280;2023-07-31T07:51:48;100531.16;;;24.61;55.26
41513;BME280;27244;59.940;30.280;2023-07-31T07:54:15;100537.13;;;24.63;55.34
41513;BME280;27244;59.940;30.280;2023-07-31T07:56:43;100538.69;;;24.64;55.56
41513;BME280;27244;59.940;30.280;2023-07-31T07:59:10;100533.06;;;24.64;55.39
41513;BME280;27244;59.940;30.280;2023-07-31T08:01:38;100525.84;;;24.63;54.84
41513;BME280;27244;59.940;30.280;2023-07-31T08:04:05;100544.81;;;24.63;54.87
41513;BME280;27244;59.940;30.280;2023-07-31T08:06:33;100531.16;;;24.61;55.07
41513;BME280;27244;59.940;30.280;2023-07-31T08:09:00;100537.13;;;24.63;55.13
41513;BME280;27244;59.940;30.280;2023-07-31T08:11:33;100529.44;;;24.64;54.96
41513;BME280;27244;59.940;30.280;2023-07-31T08:14:00;100532.25;;;24.64;54.97
41513;BME280;27244;59.940;30.280;2023-07-31T08:16:28;100539.16;;;24.63;55.01
41513;BME280;27244;59.940;30.280;2023-07-31T08:18:56;100537.56;;;24.62;54.65
41513;BME280;27244;59.940;30.280;2023-07-31T08:21:23;100538.03;;;24.60;54.30
41513;BME280;27244;59.940;30.280;2023-07-31T08:23:50;100542.44;;;24.61;54.07
41513;BME280;27244;59.940;30.280;2023-07-31T08:26:18;100533.28;;;24.57;54.29
41513;BME280;27244;59.940;30.280;2023-07-31T08:28:45;100532.38;;;24.60;54.40
41513;BME280;27244;59.940;30.280;2023-07-31T08:31:12;100535.56;;;24.62;54.00
41513;BME280;27244;59.940;30.280;2023-07-31T08:33:39;100541.19;;;24.62;54.13
41513;BME280;27244;59.940;30.280;2023-07-31T08:36:08;100539.16;;;24.63;53.95
41513;BME280;27244;59.940;30.280;2023-07-31T08:38:35;100533.53;;;24.63;54.12
41513;BME280;27244;59.940;30.280;2023-07-31T08:41:03;100531.16;;;24.61;53.97
41513;BME280;27244;59.940;30.280;2023-07-31T08:43:31;100533.97;;;24.61;54.39
41513;BME280;27244;59.940;30.280;2023-07-31T08:45:59;100532.38;;;24.60;53.95
41513;BME280;27244;59.940;30.280;2023-07-31T08:48:28;100534.75;;;24.62;54.08
41513;BME280;27244;59.940;30.280;2023-07-31T08:50:56;100536.47;;;24.59;53.90
41513;BME280;27244;59.940;30.280;2023-07-31T08:53:24;100542.31;;;24.65;53.90
41513;BME280;27244;59.940;30.280;2023-07-31T08:55:53;100535.19;;;24.60;53.94
41513;BME280;27244;59.940;30.280;2023-07-31T08:58:20;100539.97;;;24.63;54.16
41513;BME280;27244;59.940;30.280;2023-07-31T09:00:48;100539.16;;;24.63;53.87
41513;BME280;27244;59.940;30.280;2023-07-31T09:03:17;100533.84;;;24.65;54.04
41513;BME280;27244;59.940;30.280;2023-07-31T09:05:46;100544.34;;;24.64;54.08
41513;BME280;27244;59.940;30.280;2023-07-31T09:08:14;100530.81;;;24.59;53.92
41513;BME280;27244;59.940;30.280;2023-07-31T09:10:46;100521.44;;;24.62;53.62
41513;BME280;27244;59.940;30.280;2023-07-31T09:13:13;100540.28;;;24.65;53.69
41513;BME280;27244;59.940;30.280;2023-07-31T09:15:43;100532.13;;;24.67;53.67
41513;BME280;27244;59.940;30.280;2023-07-31T09:18:10;100533.06;;;24.64;53.91
41513;BME280;27244;59.940;30.280;2023-07-31T09:20:38;100533.53;;;24.63;53.81
41513;BME280;27244;59.940;30.280;2023-07-31T09:23:06;100534.75;;;24.62;53.87
41513;BME280;27244;59.940;30.280;2023-07-31T09:25:34;100537.13;;;24.63;53.83
41513;BME280;27244;59.940;30.280;2023-07-31T09:28:04;100528.88;;;24.69;53.71
41513;BME280;27244;59.940;30.280;2023-07-31T09:30:44;100528.28;;;24.74;53.58
41513;BME280;27244;59.940;30.280;2023-07-31T09:33:11;100523.03;;;24.63;53.87
41513;BME280;27244;59.940;30.280;2023-07-31T09:35:39;100533.53;;;24.63;53.51
41513;BME280;27244;59.940;30.280;2023-07-31T09:38:08;100539.34;;;24.68;53.65
41513;BME280;27244;59.940;30.280;2023-07-31T09:40:37;100528.31;;;24.61;53.46
41513;BME280;27244;59.940;30.280;2023-07-31T09:43:07;100540.94;;;24.69;53.46
41513;BME280;27244;59.940;30.280;2023-07-31T09:45:35;100535.38;;;24.91;53.01
41513;BME280;27244;59.940;30.280;2023-07-31T09:48:03;100529.97;;;24.71;53.58
41513;BME280;27244;59.940;30.280;2023-07-31T09:50:34;100526.41;;;24.92;52.91
41513;BME280;27244;59.940;30.280;2023-07-31T09:53:03;100529.31;;;24.67;53.82
41513;BME280;27244;59.940;30.280;2023-07-31T09:55:31;100522.44;;;24.68;53.79
41513;BME280;27244;59.940;30.280;2023-07-31T09:57:58;100525.72;;;24.67;53.86
41513;BME280;27244;59.940;30.280;2023-07-31T10:00:28;100523.53;;;24.71;53.55
41513;BME280;27244;59.940;30.280;2023-07-31T10:02:58;100523.66;;;24.67;53.67
41513;BME280;27244;59.940;30.280;2023-07-31T10:05:30;100519.28;;;24.66;53.76
41513;BME280;27244;59.940;30.280;2023-07-31T10:07:58;100528.06;;;24.68;53.59
41513;BME280;27244;59.940;30.280;2023-07-31T10:10:26;100524.47;;;24.68;53.54
41513;BME280;27244;59.940;30.280;2023-07-31T10:12:54;100515.34;;;24.64;53.78
41513;BME280;27244;59.940;30.280;2023-07-31T10:15:27;100524.22;;;24.75;53.98
41513;BME280;27244;59.940;30.280;2023-07-31T10:17:55;100517.91;;;24.71;53.68
41513;BME280;27244;59.940;30.280;2023-07-31T10:20:23;100513.66;;;24.66;53.41
41513;BME280;27244;59.940;30.280;2023-07-31T10:22:54;100498.66;;;24.57;53.77
41513;BME280;27244;59.940;30.280;2023-07-31T10:25:22;100516.34;;;24.70;53.82
41513;BME280;27244;59.940;30.280;2023-07-31T10:27:50;100512.72;;;24.69;53.84
41513;BME280;27244;59.940;30.280;2023-07-31T10:30:26;100510.34;;;24.68;53.45
41513;BME280;27244;59.940;30.280;2023-07-31T10:32:56;100501.91;;;24.68;53.32
41513;BME280;27244;59.940;30.280;2023-07-31T10:35:24;100509.13;;;24.69;53.46
41513;BME280;27244;59.940;30.280;2023-07-31T10:37:52;100507.53;;;24.68;53.34
41513;BME280;27244;59.940;30.280;2023-07-31T10:40:23;100503.34;;;24.72;53.06
41513;BME280;27244;59.940;30.280;2023-07-31T10:42:53;100511.16;;;24.68;52.92
41513;BME280;27244;59.940;30.280;2023-07-31T10:45:26;100513.41;;;24.73;53.06
41513;BME280;27244;59.940;30.280;2023-07-31T10:48:05;100520.28;;;24.72;53.11
41513;BME280;27244;59.940;30.280;2023-07-31T10:50:36;100503.59;;;24.65;52.85
41513;BME280;27244;59.940;30.280;2023-07-31T10:53:04;100511.94;;;24.69;53.28
41513;BME280;27244;59.940;30.280;2023-07-31T10:55:33;100499.56;;;24.66;53.00
41513;BME280;27244;59.940;30.280;2023-07-31T10:58:06;100506.75;;;24.67;52.85
41513;BME280;27244;59.940;30.280;2023-07-31T11:00:36;100503.03;;;24.70;53.29
41513;BME280;27244;59.940;30.280;2023-07-31T11:03:06;100494.22;;;24.68;53.10
41513;BME280;27244;59.940;30.280;2023-07-31T11:05:42;100503.22;;;24.76;52.93
41513;BME280;27244;59.940;30.280;2023-07-31T11:08:13;100495.34;;;24.71;52.82
41513;BME280;27244;59.940;30.280;2023-07-31T11:10:42;100500.91;;;24.62;52.84
41513;BME280;27244;59.940;30.280;2023-07-31T11:13:09;100510.34;;;24.68;52.77
41513;BME280;27244;59.940;30.280;2023-07-31T11:15:36;100507.22;;;24.66;52.62
41513;BME280;27244;59.940;30.280;2023-07-31T11:18:05;100505.50;;;24.68;52.32
41513;BME280;27244;59.940;30.280;2023-07-31T11:20:34;100505.19;;;24.66;52.35
41513;BME280;27244;59.940;30.280;2023-07-31T11:23:02;100503.94;;;24.67;52.50
41513;BME280;27244;59.940;30.280;2023-07-31T11:25:30;100493.56;;;24.64;52.59
41513;BME280;27244;59.940;30.280;2023-07-31T11:28:02;100493.66;;;24.73;52.48
41513;BME280;27244;59.940;30.280;2023-07-31T11:30:29;100493.56;;;24.64;52.48
41513;BME280;27244;59.940;30.280;2023-07-31T11:32:56;100494.56;;;24.70;52.50
41513;BME280;27244;59.940;30.280;2023-07-31T11:35:25;100483.06;;;24.65;52.67
41513;BME280;27244;59.940;30.280;2023-07-31T11:37:53;100495.81;;;24.69;52.89
41513;BME280;27244;59.940;30.280;2023-07-31T11:40:20;100495.03;;;24.69;52.59
41513;BME280;27244;59.940;30.280;2023-07-31T11:42:47;100487.34;;;24.69;52.46
41513;BME280;27244;59.940;30.280;2023-07-31T11:45:14;100492.50;;;24.71;52.88
41513;BME280;27244;59.940;30.280;2023-07-31T11:47:41;100481.22;;;24.71;52.64
41513;BME280;27244;59.940;30.280;2023-07-31T11:50:10;100481.56;;;24.73;52.56
41513;BME280;27244;59.940;30.280;2023-07-31T11:52:43;100475.00;;;24.76;52.86
41513;BME280;27244;59.940;30.280;2023-07-31T11:55:12;100475.94;;;24.73;52.81
41513;BME280;27244;59.940;30.280;2023-07-31T11:57:41;100476.72;;;24.73;52.65
41513;BME280;27244;59.940;30.280;2023-07-31T12:00:14;100470.88;;;24.68;52.74
41513;BME280;27244;59.940;30.280;2023-07-31T12:02:42;100475.16;;;24.72;53.01
41513;BME280;27244;59.940;30.280;2023-07-31T12:05:11;100466.81;;;24.69;52.99
41513;BME280;27244;59.940;30.280;2023-07-31T12:07:49;100478.94;;;24.78;52.73
41513;BME280;27244;59.940;30.280;2023-07-31T12:10:23;100472.06;;;24.79;52.72
41513;BME280;27244;59.940;30.280;2023-07-31T12:13:01;100480.88;;;24.81;52.56
41513;BME280;27244;59.940;30.280;2023-07-31T12:15:39;100476.47;;;24.80;52.56
41513;BME280;27244;59.940;30.280;2023-07-31T12:18:08;100470.75;;;24.71;52.61
41513;BME280;27244;59.940;30.280;2023-07-31T12:20:40;100469.06;;;24.74;52.76
41513;BME280;27244;59.940;30.280;2023-07-31T12:23:13;100468.94;;;24.77;52.61
41513;BME280;27244;59.940;30.280;2023-07-31T12:25:40;100464.31;;;24.71;52.64
41513;BME280;27244;59.940;30.280;2023-07-31T12:28:08;100458.03;;;24.67;52.84
41513;BME280;27244;59.940;30.280;2023-07-31T12:30:38;100455.97;;;24.67;52.80
41513;BME280;27244;59.940;30.280;2023-07-31T12:33:07;100464.31;;;24.71;53.04
41513;BME280;27244;59.940;30.280;2023-07-31T12:35:41;100466.69;;;24.72;53.02
41513;BME280;27244;59.940;30.280;2023-07-31T12:38:10;100463.06;;;24.72;53.13
41513;BME280;27244;59.940;30.280;2023-07-31T12:40:38;100459.94;;;24.70;52.84
41513;BME280;27244;59.940;30.280;2023-07-31T12:43:05;100449.09;;;24.68;52.97
41513;BME280;27244;59.940;30.280;2023-07-31T12:45:33;100452.41;;;24.67;52.95
41513;BME280;27244;59.940;30.280;2023-07-31T12:48:00;100450.69;;;24.69;53.38